Time;durP1;ratioP1;P1;durP2;ratioP2;P2;SDS_P1;SDS_P2;PMS_P1;PMS_P2;Temp;Humidity;BMP_temperature;BMP_pressure;BME280_temperature;BME280_humidity;BME280_pressure;Samples;Min_cycle;Max_cycle;Signal;HPM_P1;HPM_P2
2023/06/11 00:01:14;;;;;;;;;22.00;21.00;;;;;26.37;45.47;100766.44;4959328;28;50039;-49
2023/06/11 00:03:40;;;;;;;;;21.25;17.50;;;;;26.34;45.59;100769.34;4959723;28;45311;-50
2023/06/11 00:06:07;;;;;;;;;26.00;21.00;;;;;26.33;46.00;100767.66;4959306;28;46545;-55
2023/06/11 00:08:32;;;;;;;;;22.25;19.50;;;;;26.28;46.37;100765.38;4962502;28;45448;-51
2023/06/11 00:10:58;;;;;;;;;25.75;21.75;;;;;26.27;46.07;100765.50;4966987;28;45360;-47
2023/06/11 00:13:23;;;;;;;;;23.50;19.75;;;;;26.27;46.31;100760.19;4965145;28;45303;-50
2023/06/11 00:15:50;;;;;;;;;19.75;19.50;;;;;26.24;46.30;100762.13;4960823;28;46891;-51
2023/06/11 00:18:16;;;;;;;;;25.50;19.75;;;;;26.22;46.61;100758.75;4959670;28;45438;-55
2023/06/11 00:20:43;;;;;;;;;21.50;16.00;;;;;26.19;46.58;100766.94;4962187;28;45294;-54
2023/06/11 00:23:08;;;;;;;;;20.50;19.00;;;;;26.17;46.95;100766.25;4965399;28;45558;-48
2023/06/11 00:25:34;;;;;;;;;22.00;19.25;;;;;26.14;46.77;100766.50;4974163;28;46075;-51
2023/06/11 00:27:59;;;;;;;;;19.00;15.50;;;;;26.13;47.03;100763.97;4981387;28;45352;-56
2023/06/11 00:30:24;;;;;;;;;16.25;16.25;;;;;26.15;47.00;100767.31;4977883;28;44757;-49
2023/06/11 00:32:50;;;;;;;;;18.50;17.25;;;;;26.15;47.17;100762.00;4980334;28;44803;-46
2023/06/11 00:35:16;;;;;;;;;16.50;15.00;;;;;26.15;46.90;100762.88;4978809;28;46469;-44
2023/06/11 00:37:42;;;;;;;;;16.00;16.00;;;;;26.17;46.76;100766.25;4960896;28;45248;-48
2023/06/11 00:40:08;;;;;;;;;19.25;18.50;;;;;26.15;47.07;100762.88;4976122;28;45298;-45
2023/06/11 00:42:33;;;;;;;;;19.25;19.25;;;;;26.16;47.28;100769.88;4979096;28;45146;-54
2023/06/11 00:45:01;;;;;;;;;21.00;17.50;;;;;26.15;47.35;100773.50;4964464;28;45433;-51
2023/06/11 00:47:26;;;;;;;;;21.50;19.25;;;;;26.15;47.46;100767.31;4971729;28;45168;-48
2023/06/11 00:49:52;;;;;;;;;21.00;19.00;;;;;26.12;47.68;100772.91;4972632;28;45222;-54
2023/06/11 00:52:19;;;;;;;;;15.50;14.00;;;;;26.12;47.81;100773.75;4970801;28;45311;-52
2023/06/11 00:54:44;;;;;;;;;25.75;19.00;;;;;26.11;47.88;100774.69;4964649;28;46886;-43
2023/06/11 00:57:10;;;;;;;;;21.25;18.50;;;;;26.09;48.21;100773.94;4958710;28;45279;-46
2023/06/11 00:59:37;;;;;;;;;20.50;19.50;;;;;26.08;47.86;100777.56;4958532;28;45360;-45
2023/06/11 01:02:17;;;;;;;;;22.50;19.50;;;;;26.09;48.21;100776.59;4959305;28;45252;-42
2023/06/11 01:04:45;;;;;;;;;20.75;19.50;;;;;26.07;48.21;100786.53;4968839;28;46559;-45
2023/06/11 01:07:15;;;;;;;;;28.75;22.75;;;;;26.06;48.16;100784.84;4984330;28;45233;-42
2023/06/11 01:09:43;;;;;;;;;23.75;22.25;;;;;26.03;48.46;100785.91;4969110;28;45314;-47
2023/06/11 01:12:09;;;;;;;;;24.00;23.25;;;;;26.03;48.90;100785.06;4959597;28;45484;-48
2023/06/11 01:14:35;;;;;;;;;23.00;23.00;;;;;26.01;48.71;100784.34;4958893;28;47339;-48
2023/06/11 01:17:15;;;;;;;;;23.00;21.75;;;;;25.99;49.03;100788.94;4958459;28;45306;-52
2023/06/11 01:20:25;;;;;;;;;23.00;22.00;;;;;25.98;48.69;100788.09;4961910;28;45545;-43
2023/06/11 01:23:11;;;;;;;;;27.25;24.75;;;;;25.98;48.95;100784.59;4984242;28;45246;-49
2023/06/11 01:25:45;;;;;;;;;24.00;22.50;;;;;25.99;48.43;100783.63;4973996;28;45318;-46
2023/06/11 01:28:16;;;;;;;;;21.25;21.25;;;;;26.00;48.91;100780.84;4964675;28;45364;-57
2023/06/11 01:30:48;;;;;;;;;22.25;18.50;;;;;26.00;48.87;100774.69;4958678;28;45277;-54
2023/06/11 01:33:14;;;;;;;;;26.00;22.25;;;;;26.01;49.08;100773.72;4958342;28;45584;-57
2023/06/11 01:35:40;;;;;;;;;24.75;23.25;;;;;26.01;48.87;100771.94;4957665;28;45603;-50
2023/06/11 01:38:08;;;;;;;;;27.50;21.50;;;;;26.01;48.96;100763.09;4958207;28;45734;-50
2023/06/11 01:40:33;;;;;;;;;24.00;20.25;;;;;26.02;49.06;100767.44;4958300;28;45405;-53
2023/06/11 01:42:59;;;;;;;;;22.50;19.25;;;;;26.03;49.41;100766.47;4963881;28;45333;-49
2023/06/11 01:45:28;;;;;;;;;20.00;18.00;;;;;26.02;49.18;100764.78;4985386;28;46029;-49
2023/06/11 01:47:53;;;;;;;;;24.00;22.50;;;;;26.01;49.11;100760.44;4984856;28;45122;-55
2023/06/11 01:50:20;;;;;;;;;26.25;21.00;;;;;26.00;49.49;100764.94;4984478;28;45286;-50
2023/06/11 01:52:46;;;;;;;;;28.00;26.00;;;;;25.98;49.44;100760.69;4985485;28;44904;-48
2023/06/11 01:55:12;;;;;;;;;22.50;20.75;;;;;25.98;49.35;100768.66;4958744;28;46368;-51
2023/06/11 01:57:37;;;;;;;;;25.00;23.75;;;;;25.97;49.42;100766.97;4957673;28;45404;-53
2023/06/11 02:00:11;;;;;;;;;23.00;21.25;;;;;25.96;49.28;100767.94;4959068;28;45678;-56
2023/06/11 02:02:41;;;;;;;;;29.50;25.00;;;;;25.95;49.87;100772.41;4961693;28;45207;-53
2023/06/11 02:05:07;;;;;;;;;23.75;21.75;;;;;25.91;49.54;100762.97;4963134;28;46554;-55
2023/06/11 02:07:33;;;;;;;;;23.25;21.75;;;;;25.91;49.83;100769.16;4941295;28;45816;-56
2023/06/11 02:09:58;;;;;;;;;22.50;22.00;;;;;25.91;49.64;100771.81;4958018;28;45366;-56
2023/06/11 02:12:23;;;;;;;;;21.00;21.00;;;;;25.90;49.99;100770.13;4958147;28;45214;-53
2023/06/11 02:14:49;;;;;;;;;19.00;19.00;;;;;25.88;49.76;100766.72;4957211;28;51423;-57
2023/06/11 02:17:14;;;;;;;;;26.25;21.25;;;;;25.88;49.67;100771.22;4957480;28;45393;-56
2023/06/11 02:19:39;;;;;;;;;27.75;24.25;;;;;25.87;50.14;100765.03;4957641;28;48261;-55
2023/06/11 02:22:05;;;;;;;;;25.33;20.67;;;;;25.85;49.87;100764.31;4957656;28;53327;-52
2023/06/11 02:24:30;;;;;;;;;23.75;21.75;;;;;25.84;49.86;100764.44;4958284;28;46263;-54
2023/06/11 02:26:56;;;;;;;;;28.25;24.50;;;;;25.81;50.00;100762.88;4960368;28;45252;-55
2023/06/11 02:29:21;;;;;;;;;20.50;19.00;;;;;25.83;50.23;100765.41;4963079;28;45212;-50
2023/06/11 02:31:46;;;;;;;;;21.00;21.00;;;;;25.80;50.19;100763.84;4958339;28;47954;-48
2023/06/11 02:34:12;;;;;;;;;23.50;20.75;;;;;25.80;49.88;100757.72;4957649;28;46218;-52
2023/06/11 02:36:37;;;;;;;;;25.50;22.50;;;;;25.79;49.97;100756.84;4961023;28;45436;-56
2023/06/11 02:39:03;;;;;;;;;20.25;19.75;;;;;25.81;49.95;100748.75;4962100;28;45392;-49
2023/06/11 02:41:29;;;;;;;;;24.25;22.25;;;;;25.83;49.87;100752.13;4947210;28;45450;-42
2023/06/11 02:43:54;;;;;;;;;23.75;23.00;;;;;25.83;50.19;100753.00;4962425;28;46620;-56
2023/06/11 02:46:19;;;;;;;;;26.50;20.25;;;;;25.83;49.91;100747.69;4957454;28;45649;-55
2023/06/11 02:48:45;;;;;;;;;28.75;24.00;;;;;25.83;49.70;100746.81;4960658;28;45337;-54
2023/06/11 02:51:10;;;;;;;;;25.50;21.50;;;;;25.81;49.93;100752.28;4960848;28;45548;-52
2023/06/11 02:53:36;;;;;;;;;24.50;20.50;;;;;25.79;50.07;100748.88;4960491;28;45433;-55
2023/06/11 02:56:01;;;;;;;;;22.00;21.50;;;;;25.80;50.09;100753.22;4960156;28;45267;-54
2023/06/11 02:58:26;;;;;;;;;25.25;22.00;;;;;25.78;49.65;100745.41;4960188;28;45411;-56
2023/06/11 03:00:51;;;;;;;;;26.25;23.25;;;;;25.78;50.01;100748.06;4960642;28;45570;-56
2023/06/11 03:03:17;;;;;;;;;21.75;21.75;;;;;25.76;50.07;100747.31;4960166;28;46591;-56
2023/06/11 03:05:42;;;;;;;;;24.00;22.50;;;;;25.75;50.18;100745.63;4959521;28;56729;-50
2023/06/11 03:08:07;;;;;;;;;25.50;21.25;;;;;25.72;50.43;100740.56;4960397;28;53887;-58
2023/06/11 03:10:33;;;;;;;;;28.00;22.75;;;;;25.72;50.10;100747.69;4960444;28;45240;-56
2023/06/11 03:12:58;;;;;;;;;22.00;20.50;;;;;25.71;50.11;100746.00;4960113;28;46303;-56
2023/06/11 03:15:23;;;;;;;;;24.00;22.67;;;;;25.69;50.42;100743.44;4959480;28;64408;-57
2023/06/11 03:17:49;;;;;;;;;25.25;23.50;;;;;25.69;50.00;100743.44;4965653;28;45261;-56
2023/06/11 03:20:14;;;;;;;;;19.50;18.50;;;;;25.69;50.37;100745.28;4967750;28;45223;-56
2023/06/11 03:22:39;;;;;;;;;25.50;24.00;;;;;25.69;50.59;100750.56;4965438;28;46283;-56
2023/06/11 03:25:05;;;;;;;;;26.00;21.75;;;;;25.68;50.25;100754.19;4960562;28;45268;-57
2023/06/11 03:27:31;;;;;;;;;24.00;20.75;;;;;25.67;50.59;100749.84;4960504;28;45523;-55
2023/06/11 03:29:56;;;;;;;;;25.25;24.00;;;;;25.67;50.40;100752.50;4960312;28;45667;-57
2023/06/11 03:32:22;;;;;;;;;18.00;17.00;;;;;25.67;50.42;100758.69;4964096;28;45675;-50
2023/06/11 03:34:47;;;;;;;;;21.25;19.00;;;;;25.67;50.26;100755.16;4969028;28;45246;-50
2023/06/11 03:37:12;;;;;;;;;21.75;20.25;;;;;25.66;50.02;100756.13;4958372;28;45255;-50
2023/06/11 03:39:38;;;;;;;;;20.50;20.50;;;;;25.66;50.53;100761.44;4983129;28;44847;-46
2023/06/11 03:42:03;;;;;;;;;22.75;21.50;;;;;25.65;50.12;100759.75;4981358;28;45479;-44
2023/06/11 03:44:29;;;;;;;;;27.00;22.75;;;;;25.63;50.05;100759.88;4981409;28;44703;-50
2023/06/11 03:46:54;;;;;;;;;21.25;19.75;;;;;25.65;49.77;100754.44;4975797;28;45325;-48
2023/06/11 03:49:20;;;;;;;;;23.00;19.50;;;;;25.65;50.16;100760.59;4961415;28;45385;-46
2023/06/11 03:51:45;;;;;;;;;22.33;18.33;;;;;25.66;49.77;100761.44;4959259;28;61358;-52
2023/06/11 03:54:10;;;;;;;;;25.33;22.33;;;;;25.66;49.90;100759.63;4961132;28;55699;-50
2023/06/11 03:56:35;;;;;;;;;27.67;25.67;;;;;25.66;50.09;100761.44;4967606;28;50286;-51
2023/06/11 03:59:01;;;;;;;;;25.00;22.00;;;;;25.67;50.03;100757.81;4965683;28;45449;-46
2023/06/11 04:01:27;;;;;;;;;19.75;18.00;;;;;25.68;50.42;100768.34;4959619;28;47155;-52
2023/06/11 04:03:52;;;;;;;;;18.25;17.75;;;;;25.70;50.14;100763.72;4959651;28;46069;-57
2023/06/11 04:06:18;;;;;;;;;21.00;19.75;;;;;25.72;50.31;100760.97;4959504;28;45418;-53
2023/06/11 04:08:43;;;;;;;;;22.75;19.75;;;;;25.74;49.81;100759.03;4960441;28;45611;-55
2023/06/11 04:11:09;;;;;;;;;21.75;19.00;;;;;25.76;50.20;100751.78;4959415;28;57881;-52
2023/06/11 04:13:34;;;;;;;;;22.00;20.75;;;;;25.77;50.03;100759.63;4968736;28;45248;-53
2023/06/11 04:16:00;;;;;;;;;18.50;18.50;;;;;25.79;49.84;100767.47;4973151;28;62121;-49
2023/06/11 04:18:27;;;;;;;;;21.50;20.00;;;;;25.81;50.17;100764.69;4969729;28;45367;-45
2023/06/11 04:20:52;;;;;;;;;18.75;18.75;;;;;25.82;49.74;100758.41;4959271;28;46536;-50
2023/06/11 04:23:17;;;;;;;;;21.50;20.25;;;;;25.82;49.70;100761.94;4959065;28;45383;-47
2023/06/11 04:25:43;;;;;;;;;23.50;19.25;;;;;25.83;49.96;100765.41;4959212;28;46213;-48
2023/06/11 04:28:09;;;;;;;;;21.50;18.25;;;;;25.82;49.98;100767.22;4959385;28;45612;-53
2023/06/11 04:30:34;;;;;;;;;18.25;17.00;;;;;25.84;49.75;100767.09;4958705;28;46472;-53
2023/06/11 04:33:03;;;;;;;;;22.75;18.50;;;;;25.84;49.79;100767.97;4963669;28;45346;-46
2023/06/11 04:35:29;;;;;;;;;19.75;19.50;;;;;25.85;49.94;100764.31;4966371;28;45262;-44
2023/06/11 04:37:55;;;;;;;;;17.25;14.75;;;;;25.86;49.70;100773.97;4960736;28;45195;-49
2023/06/11 04:40:23;;;;;;;;;22.00;18.50;;;;;25.85;50.11;100766.97;4958734;28;46990;-50
2023/06/11 04:42:49;;;;;;;;;23.25;19.50;;;;;25.87;49.78;100774.81;4958977;28;45375;-53
2023/06/11 04:45:18;;;;;;;;;20.75;20.50;;;;;25.85;49.93;100769.63;4960554;28;45429;-51
2023/06/11 04:47:45;;;;;;;;;19.00;17.25;;;;;25.85;50.12;100771.44;4967563;28;45564;-54
2023/06/11 04:50:11;;;;;;;;;19.50;17.00;;;;;25.85;49.91;100772.28;4960978;28;46249;-48
2023/06/11 04:52:38;;;;;;;;;19.25;17.25;;;;;25.84;49.47;100770.63;4958483;28;45253;-47
2023/06/11 04:55:05;;;;;;;;;19.50;15.25;;;;;25.84;49.65;100775.94;4958373;28;45735;-46
2023/06/11 04:57:33;;;;;;;;;21.50;18.75;;;;;25.82;49.57;100767.22;4958523;28;45437;-50
2023/06/11 04:59:59;;;;;;;;;15.00;14.00;;;;;25.80;49.55;100763.03;4958003;28;45542;-49
2023/06/11 05:02:25;;;;;;;;;18.00;17.50;;;;;25.78;49.54;100768.44;4958319;28;45275;-47
2023/06/11 05:04:53;;;;;;;;;19.75;17.50;;;;;25.77;49.83;100774.69;4940817;28;45356;-52
2023/06/11 05:07:21;;;;;;;;;19.00;18.25;;;;;25.75;49.92;100771.31;4958577;28;45633;-44
2023/06/11 05:09:46;;;;;;;;;21.00;17.75;;;;;25.73;50.61;100774.09;4959040;28;45513;-49
2023/06/11 05:12:12;;;;;;;;;21.25;21.25;;;;;25.73;50.17;100774.09;4961854;28;45342;-50
2023/06/11 05:14:38;;;;;;;;;19.25;18.25;;;;;25.72;50.46;100779.53;4963886;28;45438;-52
2023/06/11 05:17:03;;;;;;;;;17.50;16.00;;;;;25.69;50.82;100777.13;4965388;28;45494;-49
2023/06/11 05:19:29;;;;;;;;;18.75;17.50;;;;;25.69;50.89;100771.81;4961179;28;45369;-51
2023/06/11 05:21:55;;;;;;;;;16.75;14.25;;;;;25.68;51.16;100778.09;4958330;28;45688;-51
2023/06/11 05:24:20;;;;;;;;;18.50;15.50;;;;;25.66;50.94;100766.75;4958573;28;45296;-47
2023/06/11 05:26:46;;;;;;;;;20.50;16.75;;;;;25.68;50.98;100772.78;4958922;28;45472;-50
2023/06/11 05:29:12;;;;;;;;;15.00;15.00;;;;;25.67;51.33;100776.41;4958299;28;45511;-52
2023/06/11 05:31:38;;;;;;;;;16.50;13.75;;;;;25.65;51.31;100775.66;4958902;28;45975;-51
2023/06/11 05:34:03;;;;;;;;;15.00;13.50;;;;;25.62;51.22;100777.63;4962058;28;45410;-49
2023/06/11 05:36:29;;;;;;;;;17.25;15.00;;;;;25.61;51.40;100778.59;4959598;28;45498;-49
2023/06/11 05:38:54;;;;;;;;;16.50;16.00;;;;;25.59;51.33;100777.84;4958494;28;46311;-50
2023/06/11 05:41:20;;;;;;;;;16.00;14.25;;;;;25.61;51.44;100780.38;4962367;28;45743;-46
2023/06/11 05:43:46;;;;;;;;;16.00;15.25;;;;;25.63;51.15;100778.44;4971454;28;45307;-52
2023/06/11 05:46:15;;;;;;;;;16.75;16.00;;;;;25.62;51.09;100785.59;4969257;28;45342;-53
2023/06/11 05:48:43;;;;;;;;;18.25;17.00;;;;;25.62;50.86;100782.94;4968400;28;46863;-54
2023/06/11 05:51:08;;;;;;;;;19.50;16.00;;;;;25.62;51.54;100782.94;4968387;28;46000;-51
2023/06/11 05:53:33;;;;;;;;;18.00;17.50;;;;;25.62;51.09;100782.94;4968777;28;45358;-50
2023/06/11 05:56:03;;;;;;;;;15.75;13.25;;;;;25.62;51.26;100782.94;4962981;28;45549;-52
2023/06/11 05:58:31;;;;;;;;;19.50;12.25;;;;;25.63;51.53;100781.94;4963607;28;45525;-53
2023/06/11 06:00:56;;;;;;;;;15.25;14.50;;;;;25.65;51.39;100788.94;4969154;28;45452;-52
2023/06/11 06:03:22;;;;;;;;;18.00;14.00;;;;;25.63;50.85;100781.94;4969029;28;45256;-48
2023/06/11 06:05:47;;;;;;;;;14.25;14.00;;;;;25.66;51.05;100783.53;4963667;28;45615;-50
2023/06/11 06:08:12;;;;;;;;;15.75;13.25;;;;;25.66;50.83;100786.19;4973044;28;45719;-51
2023/06/11 06:10:38;;;;;;;;;15.75;15.00;;;;;25.67;51.51;100789.66;4971348;28;45878;-49
2023/06/11 06:13:03;;;;;;;;;12.50;10.25;;;;;25.68;51.31;100791.34;4971919;28;45420;-46
2023/06/11 06:15:28;;;;;;;;;18.00;16.00;;;;;25.69;51.36;100793.06;4971972;28;45695;-46
2023/06/11 06:17:53;;;;;;;;;16.75;15.50;;;;;25.68;51.24;100786.91;4969339;28;47331;-51
2023/06/11 06:20:19;;;;;;;;;16.00;14.25;;;;;25.68;51.34;100794.88;4962262;28;50363;-52
2023/06/11 06:22:44;;;;;;;;;14.50;13.75;;;;;25.68;50.79;100794.00;4956954;28;45329;-48
2023/06/11 06:25:09;;;;;;;;;20.00;15.00;;;;;25.66;50.96;100798.59;4960891;28;49457;-48
2023/06/11 06:27:35;;;;;;;;;20.33;18.00;;;;;25.62;50.24;100796.19;4964186;28;63387;-48
2023/06/11 06:30:01;;;;;;;;;15.75;14.25;;;;;25.63;50.74;100808.47;4961371;28;45300;-45
2023/06/11 06:32:28;;;;;;;;;16.50;15.00;;;;;25.62;50.84;100803.28;4958554;28;45331;-49
2023/06/11 06:34:53;;;;;;;;;21.00;17.00;;;;;25.63;50.88;100805.00;4957768;28;45548;-44
2023/06/11 06:37:18;;;;;;;;;18.50;16.50;;;;;25.65;50.41;100810.16;4957937;28;45207;-44
2023/06/11 06:39:43;;;;;;;;;14.75;14.50;;;;;25.63;50.24;100792.56;4957422;28;45328;-42
2023/06/11 06:42:10;;;;;;;;;19.25;13.00;;;;;25.63;50.47;100805.81;4957380;28;45407;-46
2023/06/11 06:44:35;;;;;;;;;11.00;9.25;;;;;25.62;50.55;100793.53;4957745;28;45422;-45
2023/06/11 06:47:00;;;;;;;;;12.00;11.00;;;;;25.62;50.54;100798.84;4957629;28;46499;-45
2023/06/11 06:49:26;;;;;;;;;13.50;11.50;;;;;25.62;49.87;100804.16;4957685;28;45750;-47
2023/06/11 06:51:51;;;;;;;;;12.00;11.00;;;;;25.63;50.26;100805.81;4958246;28;45223;-51
2023/06/11 06:54:16;;;;;;;;;12.25;11.00;;;;;25.62;50.26;100793.53;4959323;28;45301;-49
2023/06/11 06:56:42;;;;;;;;;8.75;8.25;;;;;25.63;49.88;100799.69;4958485;28;46858;-46
2023/06/11 06:59:07;;;;;;;;;9.00;9.00;;;;;25.63;49.94;100805.81;4957118;28;45280;-47
2023/06/11 07:01:32;;;;;;;;;10.25;10.00;;;;;25.60;50.61;100792.81;4957447;28;45297;-49
2023/06/11 07:03:58;;;;;;;;;8.00;8.00;;;;;25.63;50.49;100800.50;4962685;28;45227;-47
2023/06/11 07:06:25;;;;;;;;;11.00;9.25;;;;;25.65;50.67;100803.06;4964365;28;46455;-48
2023/06/11 07:08:51;;;;;;;;;9.50;8.25;;;;;25.68;50.65;100813.47;4960685;28;45346;-46
2023/06/11 07:11:17;;;;;;;;;8.25;8.25;;;;;25.71;50.65;100822.97;4960733;28;45400;-44
2023/06/11 07:13:42;;;;;;;;;13.25;8.00;;;;;25.73;50.89;100816.56;4961248;28;45562;-48
2023/06/11 07:16:08;;;;;;;;;10.00;10.00;;;;;25.77;50.85;100819.84;4965266;28;51465;-49
2023/06/11 07:18:33;;;;;;;;;11.75;9.50;;;;;25.77;51.18;100827.78;4969586;28;45334;-47
2023/06/11 07:20:59;;;;;;;;;10.25;10.25;;;;;25.81;50.85;100834.56;4975765;28;45433;-41
2023/06/11 07:23:24;;;;;;;;;12.50;10.25;;;;;25.82;51.42;100828.28;4972590;28;44778;-45
2023/06/11 07:25:50;;;;;;;;;12.25;10.25;;;;;25.83;51.32;100832.63;4954681;28;48932;-46
2023/06/11 07:28:16;;;;;;;;;10.00;10.00;;;;;25.87;51.35;100843.84;4972275;28;44804;-49
2023/06/11 07:30:41;;;;;;;;;10.75;9.75;;;;;25.89;51.48;100841.94;4974068;28;45176;-48
2023/06/11 07:33:07;;;;;;;;;13.00;10.75;;;;;25.91;51.88;100839.97;4976123;28;45300;-51
2023/06/11 07:35:33;;;;;;;;;12.50;11.00;;;;;25.91;51.85;100835.53;4978246;28;45509;-50
2023/06/11 07:37:58;;;;;;;;;17.25;13.75;;;;;25.95;51.47;100835.31;4964926;28;45559;-49
2023/06/11 07:40:23;;;;;;;;;12.00;11.75;;;;;25.97;51.82;100838.66;4966878;28;45387;-48
2023/06/11 07:42:48;;;;;;;;;11.50;10.25;;;;;25.98;52.17;100840.34;4952554;28;45625;-48
2023/06/11 07:45:15;;;;;;;;;13.00;11.25;;;;;26.01;51.77;100845.44;4964125;28;47802;-52
2023/06/11 07:47:43;;;;;;;;;14.25;12.50;;;;;26.01;51.55;100840.13;4963519;28;45471;-50
2023/06/11 07:50:10;;;;;;;;;14.25;12.50;;;;;26.02;51.83;100841.81;4963994;28;45346;-55
2023/06/11 07:52:36;;;;;;;;;18.25;15.50;;;;;26.03;51.80;100843.50;4960893;28;45714;-52
2023/06/11 07:55:02;;;;;;;;;14.75;14.50;;;;;26.06;51.82;100843.25;4959993;28;45431;-53
2023/06/11 07:57:27;;;;;;;;;12.75;12.50;;;;;26.08;51.75;100838.66;4960021;28;45698;-48
2023/06/11 07:59:53;;;;;;;;;17.50;14.00;;;;;26.08;51.93;100838.66;4959589;28;45221;-53
2023/06/11 08:02:19;;;;;;;;;15.25;12.25;;;;;26.11;51.87;100841.09;4959636;28;45409;-51
2023/06/11 08:04:44;;;;;;;;;11.75;10.00;;;;;26.10;51.60;100831.44;4959385;28;46558;-51
2023/06/11 08:07:10;;;;;;;;;13.25;11.00;;;;;26.14;51.52;100834.69;4959345;28;45686;-46
2023/06/11 08:09:37;;;;;;;;;12.50;12.00;;;;;26.15;51.62;100842.56;4959002;28;48837;-52
2023/06/11 08:12:07;;;;;;;;;14.25;12.00;;;;;26.17;51.90;100840.63;4959751;28;45412;-47
2023/06/11 08:14:33;;;;;;;;;11.25;11.25;;;;;26.19;51.29;100844.00;4980883;28;45365;-48
2023/06/11 08:16:58;;;;;;;;;8.75;8.50;;;;;26.19;51.36;100841.34;4985428;28;45437;-46
2023/06/11 08:19:24;;;;;;;;;13.25;13.25;;;;;26.21;51.94;100835.91;4965424;28;44881;-54
2023/06/11 08:21:49;;;;;;;;;14.25;12.75;;;;;26.21;51.72;100827.94;4979183;28;45439;-54
2023/06/11 08:24:16;;;;;;;;;12.00;12.00;;;;;26.23;51.85;100826.03;4981241;28;46387;-54
2023/06/11 08:26:42;;;;;;;;;15.00;13.00;;;;;26.24;51.58;100831.19;4963415;28;45331;-50
2023/06/11 08:29:07;;;;;;;;;12.00;12.00;;;;;26.26;51.79;100832.88;4980683;28;45198;-53
2023/06/11 08:31:32;;;;;;;;;11.00;11.00;;;;;26.27;51.42;100826.59;4979471;28;44855;-51
2023/06/11 08:33:58;;;;;;;;;13.75;12.50;;;;;26.26;51.81;100831.06;4959609;28;46217;-55
2023/06/11 08:36:24;;;;;;;;;13.50;13.50;;;;;26.28;51.58;100828.31;4959925;28;45322;-48
2023/06/11 08:38:49;;;;;;;;;10.75;10.00;;;;;26.29;51.33;100830.00;4958946;28;45418;-49
2023/06/11 08:41:15;;;;;;;;;15.25;11.50;;;;;26.28;51.63;100823.00;4958896;28;45635;-53
2023/06/11 08:43:41;;;;;;;;;12.25;10.75;;;;;26.30;51.56;100831.66;4959898;28;46438;-54
2023/06/11 08:46:13;;;;;;;;;16.00;13.00;;;;;26.29;51.57;100825.50;4974707;28;45402;-51
2023/06/11 08:48:41;;;;;;;;;13.00;11.50;;;;;26.30;51.59;100829.00;4971500;28;45299;-51
2023/06/11 08:51:10;;;;;;;;;13.00;11.75;;;;;26.31;51.14;100822.72;4963523;28;45648;-53
2023/06/11 08:53:36;;;;;;;;;12.25;11.00;;;;;26.32;51.69;100827.06;4975872;28;45614;-53
2023/06/11 08:56:02;;;;;;;;;15.00;14.00;;;;;26.32;51.75;100827.94;4971487;28;45256;-48
2023/06/11 08:58:31;;;;;;;;;13.50;12.75;;;;;26.32;51.61;100821.75;4969369;28;45456;-54
2023/06/11 09:00:56;;;;;;;;;9.00;9.00;;;;;26.32;51.59;100821.75;4948606;28;45693;-54
2023/06/11 09:03:21;;;;;;;;;16.25;11.50;;;;;26.34;51.64;100825.13;4966252;28;45500;-55
2023/06/11 09:05:47;;;;;;;;;12.00;11.75;;;;;26.33;51.57;100820.78;4965448;28;45776;-55
2023/06/11 09:08:13;;;;;;;;;12.75;12.00;;;;;26.33;51.61;100824.31;4960091;28;45178;-54
2023/06/11 09:10:51;;;;;;;;;14.25;14.00;;;;;26.33;51.17;100826.09;4959821;28;45509;-54
2023/06/11 09:13:17;;;;;;;;;16.00;12.50;;;;;26.34;51.27;100819.81;4959594;28;45613;-50
2023/06/11 09:15:52;;;;;;;;;17.25;15.25;;;;;26.35;51.79;100822.34;4959354;28;45350;-42
2023/06/11 09:18:19;;;;;;;;;11.50;11.00;;;;;26.35;51.57;100827.66;4958379;28;45335;-43
2023/06/11 09:21:01;;;;;;;;;12.25;12.25;;;;;26.34;51.16;100826.00;4958877;28;45441;-41
2023/06/11 09:23:28;;;;;;;;;13.50;12.25;;;;;26.36;51.39;100829.34;4958957;28;46674;-51
2023/06/11 09:25:54;;;;;;;;;11.75;10.50;;;;;26.36;51.09;100826.69;4959578;28;45922;-41
2023/06/11 09:28:20;;;;;;;;;14.00;11.50;;;;;26.37;51.17;100835.53;4962479;28;45680;-40
2023/06/11 09:30:59;;;;;;;;;15.75;13.25;;;;;26.37;51.25;100836.34;4965897;28;44989;-43
2023/06/11 09:33:26;;;;;;;;;15.25;14.25;;;;;26.38;51.12;100842.53;4967342;28;46169;-52
2023/06/11 09:35:52;;;;;;;;;13.75;13.75;;;;;26.38;51.18;100842.53;4971446;28;45111;-49
2023/06/11 09:38:19;;;;;;;;;12.25;12.25;;;;;26.38;51.29;100840.72;4974033;28;45477;-43
2023/06/11 09:40:46;;;;;;;;;13.00;12.00;;;;;26.40;51.41;100845.91;4975611;28;45011;-51
2023/06/11 09:43:13;;;;;;;;;16.00;13.00;;;;;26.41;51.76;100849.41;4979091;28;46330;-50
2023/06/11 09:45:38;;;;;;;;;12.25;12.25;;;;;26.41;51.67;100849.41;4980330;28;45780;-45
2023/06/11 09:48:04;;;;;;;;;12.75;12.00;;;;;26.40;51.67;100853.88;4977034;28;44814;-50
2023/06/11 09:50:32;;;;;;;;;17.75;16.00;;;;;26.41;51.71;100858.22;4980693;28;45235;-53
2023/06/11 09:53:02;;;;;;;;;12.50;12.50;;;;;26.42;51.16;100851.09;4981682;28;46407;-51
2023/06/11 09:55:31;;;;;;;;;15.75;15.75;;;;;26.43;51.58;100856.28;4972705;28;45681;-52
2023/06/11 09:57:57;;;;;;;;;14.00;13.25;;;;;26.43;51.53;100855.44;4958664;28;45384;-47
2023/06/11 10:00:23;;;;;;;;;15.50;13.25;;;;;26.45;51.80;100861.50;4959478;28;45436;-51
2023/06/11 10:02:48;;;;;;;;;17.25;17.00;;;;;26.45;51.83;100862.31;4957784;28;45366;-53
2023/06/11 10:05:14;;;;;;;;;14.25;13.75;;;;;26.45;51.82;100859.66;4957279;28;45328;-50
2023/06/11 10:07:45;;;;;;;;;15.75;15.25;;;;;26.45;51.63;100857.00;4957436;28;45246;-53
2023/06/11 10:10:12;;;;;;;;;16.75;14.50;;;;;26.46;51.97;100861.34;4957543;28;45426;-49
2023/06/11 10:12:38;;;;;;;;;17.25;17.25;;;;;26.46;51.66;100860.53;4957408;28;46185;-53
2023/06/11 10:15:07;;;;;;;;;16.75;14.75;;;;;26.47;51.71;100867.50;4957632;28;45496;-53
2023/06/11 10:17:32;;;;;;;;;15.25;14.25;;;;;26.46;51.64;100860.53;4958104;28;45414;-52
2023/06/11 10:19:58;;;;;;;;;15.25;13.50;;;;;26.47;51.90;100863.03;4957697;28;45307;-53
2023/06/11 10:22:34;;;;;;;;;17.00;14.50;;;;;26.47;52.12;100860.38;4946224;28;45930;-53
2023/06/11 10:25:01;;;;;;;;;16.25;13.75;;;;;26.46;51.50;100866.66;4966028;28;45311;-51
2023/06/11 10:27:37;;;;;;;;;18.25;17.00;;;;;26.47;51.91;100868.38;4960072;28;45323;-48
2023/06/11 10:30:08;;;;;;;;;14.25;14.25;;;;;26.47;51.61;100871.03;4940794;28;45560;-49
2023/06/11 10:32:34;;;;;;;;;15.75;14.50;;;;;26.48;51.74;100866.53;4957922;28;46556;-49
2023/06/11 10:35:03;;;;;;;;;16.00;13.00;;;;;26.47;51.61;100865.69;4957667;28;45353;-49
2023/06/11 10:37:28;;;;;;;;;22.50;17.00;;;;;26.48;51.51;100875.38;4957261;28;45382;-46
2023/06/11 10:39:56;;;;;;;;;16.33;15.33;;;;;26.48;51.33;100878.03;4973006;28;45581;-51
2023/06/11 10:42:39;;;;;;;;;19.25;16.75;;;;;26.49;51.45;100870.88;4970601;28;46153;-51
2023/06/11 10:45:12;;;;;;;;;19.00;16.50;;;;;26.50;51.91;100873.44;4963875;28;45756;-54
2023/06/11 10:47:46;;;;;;;;;19.50;18.50;;;;;26.50;51.34;100870.78;4963278;28;45369;-50
2023/06/11 10:50:14;;;;;;;;;17.75;17.25;;;;;26.50;51.88;100868.13;4971905;28;45475;-48
2023/06/11 10:52:54;;;;;;;;;21.00;19.25;;;;;26.53;51.89;100872.34;4975641;28;45184;-50
2023/06/11 10:55:21;;;;;;;;;23.50;20.75;;;;;26.52;51.97;100881.28;4968078;28;45449;-51
2023/06/11 10:57:57;;;;;;;;;22.75;18.75;;;;;26.51;51.76;100866.28;4978142;28;45278;-45
2023/06/11 11:00:22;;;;;;;;;22.00;20.00;;;;;26.51;51.79;100874.28;4964501;28;45465;-51
2023/06/11 11:02:49;;;;;;;;;21.75;20.25;;;;;26.52;51.93;100875.97;4962585;28;47179;-54
2023/06/11 11:05:14;;;;;;;;;24.00;20.00;;;;;26.53;51.65;100875.81;4965244;28;45370;-53
2023/06/11 11:07:44;;;;;;;;;23.50;20.50;;;;;26.52;51.49;100875.97;4965177;28;45387;-46